Time;durP1;ratioP1;P1;durP2;ratioP2;P2;SDS_P1;SDS_P2;PMS_P1;PMS_P2;Temp;Humidity;BMP_temperature;BMP_pressure;BME280_temperature;BME280_humidity;BME280_pressure;Samples;Min_cycle;Max_cycle;Signal;HPM_P1;HPM_P2
2021/06/15 00:00:08;;;;;;;5.92;4.10;;;;;;;22.53;62.49;100565.73;1710814;81;21067;-61
2021/06/15 00:02:36;;;;;;;5.97;3.85;;;;;;;22.52;62.49;100561.94;1690975;83;21133;-61
2021/06/15 00:05:04;;;;;;;8.45;3.65;;;;;;;22.49;62.49;100555.08;1707827;83;21084;-60
2021/06/15 00:07:30;;;;;;;4.75;3.33;;;;;;;22.47;62.50;100558.78;1701967;83;21156;-60
2021/06/15 00:09:56;;;;;;;6.75;3.95;;;;;;;22.45;62.51;100549.97;1699866;83;21427;-61
2021/06/15 00:12:22;;;;;;;5.45;3.42;;;;;;;22.46;62.51;100547.45;1695147;83;21089;-60
2021/06/15 00:14:48;;;;;;;6.30;3.60;;;;;;;22.47;62.57;100539.38;1710722;81;20922;-60
2021/06/15 00:17:14;;;;;;;7.08;4.05;;;;;;;22.48;62.67;100534.08;1695526;83;21092;-60
2021/06/15 00:19:40;;;;;;;6.33;3.50;;;;;;;22.49;62.77;100527.36;1711450;81;21490;-61
2021/06/15 00:22:07;;;;;;;6.75;4.03;;;;;;;22.50;62.86;100519.86;1701263;83;21135;-60
2021/06/15 00:24:33;;;;;;;6.25;4.03;;;;;;;22.49;62.88;100516.27;1697850;83;21672;-61
2021/06/15 00:26:59;;;;;;;4.95;3.65;;;;;;;22.50;62.90;100512.92;1691361;83;21103;-61
2021/06/15 00:29:25;;;;;;;5.78;3.90;;;;;;;22.50;62.87;100506.00;1700722;83;21135;-61
2021/06/15 00:31:51;;;;;;;8.45;3.90;;;;;;;22.50;62.79;100506.81;1692181;83;21132;-60
2021/06/15 00:34:17;;;;;;;5.85;3.95;;;;;;;22.49;62.79;100507.17;1708924;83;21728;-60
2021/06/15 00:36:44;;;;;;;5.65;3.37;;;;;;;22.47;62.74;100496.98;1702956;83;21077;-60
2021/06/15 00:39:10;;;;;;;5.78;3.65;;;;;;;22.46;62.72;100492.58;1713413;81;20918;-61
2021/06/15 00:41:36;;;;;;;6.17;3.70;;;;;;;22.44;62.70;100492.93;1679064;83;21581;-61
2021/06/15 00:44:02;;;;;;;6.65;4.00;;;;;;;22.43;62.68;100495.45;1722001;81;21254;-60
2021/06/15 00:46:28;;;;;;;5.28;3.42;;;;;;;22.41;62.69;100499.13;1700731;83;21068;-60
2021/06/15 00:48:54;;;;;;;6.00;3.55;;;;;;;22.39;62.68;100493.70;1700844;83;21098;-61
2021/06/15 00:51:20;;;;;;;5.45;3.40;;;;;;;22.37;62.70;100495.98;1717153;81;21386;-60
2021/06/15 00:53:46;;;;;;;5.40;3.35;;;;;;;22.38;62.72;100494.84;1714701;81;21149;-61
2021/06/15 00:56:12;;;;;;;5.28;3.02;;;;;;;22.38;62.77;100496.22;1720496;81;21332;-60
2021/06/15 00:58:38;;;;;;;8.28;3.70;;;;;;;22.40;62.85;100500.30;1701620;82;21476;-60
2021/06/15 01:01:07;;;;;;;5.00;3.40;;;;;;;22.41;62.96;100498.31;1693604;83;21313;-60
2021/06/15 01:03:33;;;;;;;7.08;3.62;;;;;;;22.41;63.06;100501.90;1720468;81;21503;-61
2021/06/15 01:06:02;;;;;;;7.00;3.72;;;;;;;22.42;63.10;100504.09;1707034;83;21163;-60
2021/06/15 01:08:45;;;;;;;7.40;3.37;;;;;;;22.42;63.10;100500.76;1703667;83;21547;-61
2021/06/15 01:11:51;;;;;;;6.70;3.70;;;;;;;22.42;63.05;100511.84;1714124;81;21078;-60
2021/06/15 01:14:43;;;;;;;4.58;3.17;;;;;;;22.43;63.00;100514.05;1726675;81;21075;-60
2021/06/15 01:17:14;;;;;;;6.12;3.47;;;;;;;22.40;62.94;100507.80;1693222;83;21092;-60
2021/06/15 01:20:10;;;;;;;5.75;3.50;;;;;;;22.37;62.90;100509.27;1704169;83;21060;-61
2021/06/15 01:22:47;;;;;;;6.65;4.00;;;;;;;22.35;62.89;100510.19;1696485;83;22133;-60
2021/06/15 01:25:39;;;;;;;5.25;3.22;;;;;;;22.32;62.88;100510.84;1717970;81;21017;-61
2021/06/15 01:28:36;;;;;;;7.05;3.40;;;;;;;22.29;62.86;100504.59;1690966;83;21044;-61
2021/06/15 01:31:14;;;;;;;7.15;3.62;;;;;;;22.26;62.88;100496.96;1726398;81;21077;-60
2021/06/15 01:33:44;;;;;;;4.65;2.90;;;;;;;22.23;62.88;100499.03;1716554;81;21062;-61
2021/06/15 01:36:12;;;;;;;6.00;3.17;;;;;;;22.24;62.90;100499.24;1689111;83;21101;-60
2021/06/15 01:38:42;;;;;;;6.15;3.50;;;;;;;22.24;62.95;100495.90;1713899;81;20998;-60
2021/06/15 01:41:10;;;;;;;3.58;2.62;;;;;;;22.26;63.07;100498.34;1727418;81;21665;-61
2021/06/15 01:43:44;;;;;;;5.40;3.42;;;;;;;22.26;63.18;100492.80;1694781;83;21539;-61
2021/06/15 01:46:11;;;;;;;5.70;3.47;;;;;;;;;;1726845;81;21631;-61
2021/06/15 01:48:54;;;;;;;5.90;3.58;;;;;;;;;;1711562;82;21214;-61
2021/06/15 01:51:24;;;;;;;5.50;3.72;;;;;;;22.29;63.30;100510.14;1714245;82;21016;-61
2021/06/15 01:54:10;;;;;;;5.67;4.30;;;;;;;22.29;63.28;100504.02;1712862;82;21559;-61
2021/06/15 01:56:41;;;;;;;5.53;3.55;;;;;;;22.29;63.23;100500.44;1720207;81;21076;-61
2021/06/15 01:59:10;;;;;;;4.45;3.00;;;;;;;22.26;63.17;100501.94;1738216;80;21099;-60
2021/06/15 02:01:42;;;;;;;6.08;3.40;;;;;;;22.26;63.16;100495.58;1755587;80;21161;-64
2021/06/15 02:04:09;;;;;;;4.87;3.52;;;;;;;22.24;63.13;100498.67;1756216;80;21079;-61
2021/06/15 02:06:35;;;;;;;4.45;3.30;;;;;;;22.21;63.13;100499.36;1726138;80;21487;-61
2021/06/15 02:09:03;;;;;;;5.72;3.50;;;;;;;22.22;63.13;100494.63;1756900;80;21135;-61
2021/06/15 02:11:30;;;;;;;6.33;3.47;;;;;;;22.19;63.11;100504.41;1754684;80;21118;-61
2021/06/15 02:14:02;;;;;;;5.35;3.30;;;;;;;22.18;63.11;100513.08;1722589;81;21251;-61
2021/06/15 02:16:29;;;;;;;5.58;3.35;;;;;;;22.15;63.09;100507.61;1730831;81;21020;-65
2021/06/15 02:18:56;;;;;;;4.72;3.05;;;;;;;22.16;63.12;100509.81;1731469;81;21124;-62
2021/06/15 02:21:24;;;;;;;4.92;2.95;;;;;;;22.17;63.18;100510.05;1732152;81;21720;-61
2021/06/15 02:23:55;;;;;;;5.00;3.05;;;;;;;22.19;63.29;100510.55;1727489;81;21063;-61
2021/06/15 02:26:21;;;;;;;4.08;2.95;;;;;;;22.20;63.38;100515.73;1705111;82;21083;-60
2021/06/15 02:28:48;;;;;;;4.95;3.52;;;;;;;22.22;63.44;100523.16;1727095;81;21056;-61
2021/06/15 02:31:21;;;;;;;5.87;3.52;;;;;;;22.21;63.46;100523.48;1724897;81;21086;-61
2021/06/15 02:33:50;;;;;;;4.67;2.60;;;;;;;22.22;63.46;100518.18;1759337;80;21016;-61
2021/06/15 02:36:20;;;;;;;6.05;3.37;;;;;;;22.23;63.42;100528.13;1764879;80;21036;-60
2021/06/15 02:38:55;;;;;;;5.63;3.27;;;;;;;22.22;63.36;100520.95;1766831;80;21107;-61
2021/06/15 02:41:22;;;;;;;5.08;3.20;;;;;;;22.21;63.30;100522.09;1735615;81;21018;-61
2021/06/15 02:43:56;;;;;;;5.08;2.90;;;;;;;22.20;63.26;100524.62;1725968;81;21013;-61
2021/06/15 02:46:19;;;;;;;4.62;3.20;;;;;;;22.18;63.23;100531.90;1739088;81;21459;-61
2021/06/15 02:48:50;;;;;;;6.53;3.02;;;;;;;22.16;63.21;100542.49;1762291;80;21127;-61
2021/06/15 02:51:17;;;;;;;4.47;3.05;;;;;;;22.14;63.19;100543.41;1738340;81;21586;-61
2021/06/15 02:53:54;;;;;;;4.62;2.85;;;;;;;22.14;63.19;100547.57;1738300;81;20996;-61
2021/06/15 02:56:22;;;;;;;5.35;3.10;;;;;;;22.12;63.21;100544.88;1735653;81;21012;-61
2021/06/15 02:58:48;;;;;;;5.35;2.80;;;;;;;22.09;63.18;100543.59;1744175;81;21453;-61
2021/06/15 03:01:14;;;;;;;4.85;3.00;;;;;;;22.09;63.20;100539.44;1738609;81;21055;-61
2021/06/15 03:03:40;;;;;;;4.30;3.12;;;;;;;22.12;63.25;100540.15;1739941;81;21335;-60
2021/06/15 03:06:07;;;;;;;5.65;3.12;;;;;;;22.13;63.34;100534.86;1737646;81;20961;-61
2021/06/15 03:08:33;;;;;;;4.35;2.95;;;;;;;22.14;63.44;100542.03;1736665;81;21411;-61
2021/06/15 03:11:03;;;;;;;5.22;3.30;;;;;;;22.15;63.51;100547.78;1735371;81;21914;-61
2021/06/15 03:13:43;;;;;;;8.48;3.08;;;;;;;22.16;63.50;100545.27;1738447;81;21158;-61
2021/06/15 03:16:09;;;;;;;4.27;2.73;;;;;;;22.15;63.46;100549.17;1735400;81;21099;-61
2021/06/15 03:18:57;;;;;;;4.60;3.20;;;;;;;22.15;63.43;100547.78;1704897;82;21468;-61
2021/06/15 03:21:24;;;;;;;9.20;3.33;;;;;;;22.15;63.40;100549.17;1736171;81;21072;-62
2021/06/15 03:23:58;;;;;;;6.08;3.25;;;;;;;22.15;63.36;100545.02;1739233;81;21031;-61
2021/06/15 03:26:35;;;;;;;7.15;3.72;;;;;;;22.15;63.33;100542.84;1740822;81;21034;-62
2021/06/15 03:29:01;;;;;;;4.25;2.87;;;;;;;22.13;63.31;100538.20;1736543;81;21027;-61
2021/06/15 03:31:31;;;;;;;5.42;3.12;;;;;;;22.11;63.26;100543.24;1738168;81;21077;-62
2021/06/15 03:33:57;;;;;;;4.72;2.80;;;;;;;22.08;63.27;100542.53;1706540;81;21063;-62
2021/06/15 03:36:24;;;;;;;4.03;2.87;;;;;;;22.07;63.27;100543.11;1741494;81;21063;-62
2021/06/15 03:38:51;;;;;;;4.90;2.62;;;;;;;22.09;63.26;100544.17;1736898;81;21012;-62
2021/06/15 03:41:17;;;;;;;4.12;2.70;;;;;;;22.11;63.31;100541.86;1741196;81;21447;-62
2021/06/15 03:43:49;;;;;;;4.37;2.45;;;;;;;22.12;63.40;100539.34;1738609;81;20972;-61
2021/06/15 03:46:16;;;;;;;6.97;2.77;;;;;;;22.13;63.50;100542.35;1743031;81;21511;-62
2021/06/15 03:48:45;;;;;;;3.95;2.70;;;;;;;22.13;63.55;100543.17;1681692;81;21088;-61
2021/06/15 03:51:18;;;;;;;8.70;3.00;;;;;;;22.14;63.53;100550.91;1735986;81;21075;-61
2021/06/15 03:53:45;;;;;;;6.47;2.47;;;;;;;22.13;63.49;100544.55;1734978;81;21139;-61
2021/06/15 03:56:11;;;;;;;7.75;3.50;;;;;;;22.13;63.44;100547.89;1707379;81;22254;-62
2021/06/15 03:58:37;;;;;;;11.75;3.60;;;;;;;22.13;63.45;100544.55;1735297;81;21067;-61
2021/06/15 04:01:04;;;;;;;5.85;2.90;;;;;;;22.14;63.43;100545.37;1740496;81;21065;-63
2021/06/15 04:03:34;;;;;;;9.60;4.00;;;;;;;22.14;63.44;100550.91;1734315;81;21114;-62
2021/06/15 04:06:01;;;;;;;12.88;3.87;;;;;;;22.13;63.42;100548.70;1738163;81;23235;-62
2021/06/15 04:08:27;;;;;;;11.40;3.75;;;;;;;22.13;63.44;100543.73;1738815;81;21059;-62
2021/06/15 04:10:54;;;;;;;6.30;2.72;;;;;;;22.12;63.44;100540.72;1705730;82;21071;-62
2021/06/15 04:13:21;;;;;;;12.47;3.87;;;;;;;22.15;63.44;100545.62;1735690;81;21051;-62
2021/06/15 04:15:47;;;;;;;11.57;4.10;;;;;;;22.17;63.33;100539.97;1718323;81;21341;-63
2021/06/15 04:18:16;;;;;;;6.50;2.05;;;;;;;22.18;63.41;100537.44;1737468;81;21110;-62
2021/06/15 04:20:45;;;;;;;9.70;2.52;;;;;;;22.20;63.43;100544.02;1738382;81;21633;-62
2021/06/15 04:23:11;;;;;;;3.25;2.20;;;;;;;22.21;63.39;100533.99;1734111;81;21102;-62
2021/06/15 04:25:40;;;;;;;3.10;1.82;;;;;;;22.23;63.32;100531.71;1709273;82;21110;-62
2021/06/15 04:28:06;;;;;;;6.30;2.50;;;;;;;22.24;63.14;100538.86;1740671;81;21043;-63
2021/06/15 04:30:34;;;;;;;5.35;2.25;;;;;;;22.25;62.85;100533.56;1738137;81;21562;-62
2021/06/15 04:33:03;;;;;;;6.58;2.30;;;;;;;22.26;62.68;100535.19;1731813;81;21558;-62
2021/06/15 04:35:40;;;;;;;3.27;2.12;;;;;;;22.27;62.47;100534.63;1737991;81;21596;-62
2021/06/15 04:38:11;;;;;;;3.25;1.75;;;;;;;22.25;62.31;100531.36;1709945;82;21063;-62
2021/06/15 04:40:43;;;;;;;6.15;2.42;;;;;;;22.21;62.18;100531.22;1747851;80;21024;-62
2021/06/15 04:43:38;;;;;;;5.67;2.08;;;;;;;22.19;62.11;100529.34;1708702;82;21641;-65
2021/06/15 04:46:20;;;;;;;28.00;8.75;;;;;;;22.18;62.07;100525.55;1746695;80;21017;-64
2021/06/15 04:49:07;;;;;;;58.52;18.90;;;;;;;22.17;62.09;100524.73;1751369;80;21025;-66
2021/06/15 04:51:33;;;;;;;25.27;11.28;;;;;;;22.20;62.25;100521.84;1733708;80;21514;-66
2021/06/15 04:54:00;;;;;;;14.45;7.22;;;;;;;22.24;62.42;100521.41;1752059;80;21065;-66
2021/06/15 04:56:29;;;;;;;11.85;5.50;;;;;;;22.28;62.59;100525.95;1753251;80;21145;-66
2021/06/15 04:59:01;;;;;;;12.75;5.17;;;;;;;22.31;62.72;100525.88;1742202;81;21078;-67
2021/06/15 05:01:27;;;;;;;15.00;4.62;;;;;;;22.30;62.80;100526.44;1696944;82;21040;-68
2021/06/15 05:03:54;;;;;;;9.73;3.77;;;;;;;22.31;62.86;100530.84;1732975;80;20996;-66
2021/06/15 05:06:20;;;;;;;8.40;3.45;;;;;;;22.32;62.81;100529.67;1734317;80;21068;-66
2021/06/15 05:08:54;;;;;;;7.60;3.40;;;;;;;22.31;62.72;100525.30;1733950;80;21572;-66
2021/06/15 05:11:20;;;;;;;4.83;3.10;;;;;;;22.31;62.67;100525.88;1712932;82;21105;-66
2021/06/15 05:13:46;;;;;;;8.98;2.98;;;;;;;22.31;62.63;100523.10;1726705;81;21103;-66
2021/06/15 05:16:13;;;;;;;8.28;2.42;;;;;;;22.30;62.58;100520.09;1710747;82;21077;-66
2021/06/15 05:18:39;;;;;;;5.17;2.55;;;;;;;22.30;62.52;100522.86;1707469;82;22244;-65
2021/06/15 05:21:12;;;;;;;5.17;2.45;;;;;;;22.29;62.47;100522.04;1727104;81;22099;-66
2021/06/15 05:23:45;;;;;;;4.92;2.10;;;;;;;22.29;62.45;100521.22;1701588;82;21611;-66
2021/06/15 05:26:12;;;;;;;4.67;2.58;;;;;;;22.28;62.37;100531.49;1728815;81;21049;-66
2021/06/15 05:28:38;;;;;;;4.67;2.02;;;;;;;22.27;62.36;100520.77;1704744;82;21013;-66
2021/06/15 05:31:04;;;;;;;4.42;2.00;;;;;;;22.26;62.30;100526.88;1739095;80;21035;-66
2021/06/15 05:33:30;;;;;;;5.75;2.45;;;;;;;22.26;62.28;100524.11;1746065;80;21577;-66
2021/06/15 05:35:56;;;;;;;4.53;2.30;;;;;;;22.26;62.25;100523.29;1731117;80;21040;-65
2021/06/15 05:38:23;;;;;;;5.17;2.37;;;;;;;22.27;62.22;100530.46;1739588;80;21092;-66
2021/06/15 05:40:49;;;;;;;4.37;2.00;;;;;;;22.26;62.19;100526.06;1710033;82;21438;-66
2021/06/15 05:43:16;;;;;;;3.87;2.10;;;;;;;22.27;62.15;100529.08;1741569;80;20879;-66
2021/06/15 05:45:43;;;;;;;2.72;1.62;;;;;;;22.30;62.22;100533.38;1745388;80;21048;-66
2021/06/15 05:48:10;;;;;;;3.58;1.90;;;;;;;22.33;62.30;100539.62;1728274;81;21047;-65
2021/06/15 05:50:36;;;;;;;2.42;1.80;;;;;;;22.34;62.39;100533.50;1731739;80;21535;-66
2021/06/15 05:53:02;;;;;;;5.12;1.92;;;;;;;22.37;62.38;100547.25;1730035;81;22079;-66
2021/06/15 05:55:29;;;;;;;6.05;1.47;;;;;;;22.38;62.36;100541.39;1695672;83;21143;-65
2021/06/15 05:57:55;;;;;;;3.45;1.82;;;;;;;22.39;62.32;100531.11;1739963;80;21317;-65
2021/06/15 06:00:22;;;;;;;4.67;1.95;;;;;;;22.41;62.24;100529.62;1721796;81;21003;-66
2021/06/15 06:02:48;;;;;;;3.75;1.70;;;;;;;22.41;62.18;100524.64;1712608;81;21076;-65
2021/06/15 06:10:26;;;;;;;4.03;2.02;;;;;;;22.37;62.01;100500.13;1714324;81;21972;-65
2021/06/15 06:12:52;;;;;;;3.80;1.90;;;;;;;22.33;61.99;100510.52;1713399;82;21079;-65
2021/06/15 06:15:18;;;;;;;4.15;1.70;;;;;;;22.32;61.97;100503.34;1712608;81;21144;-66
2021/06/15 06:17:44;;;;;;;4.30;1.92;;;;;;;22.30;61.93;100495.14;1715747;81;21453;-66
2021/06/15 06:20:13;;;;;;;3.00;1.95;;;;;;;22.29;61.97;100496.28;1718274;81;20922;-66
2021/06/15 06:22:40;;;;;;;2.83;1.77;;;;;;;22.26;61.96;100490.84;1747032;80;21164;-66
2021/06/15 06:25:09;;;;;;;2.67;1.55;;;;;;;22.25;61.94;100491.98;1735593;81;21047;-66
2021/06/15 06:27:36;;;;;;;3.87;1.77;;;;;;;22.24;61.96;100485.39;1734510;81;21500;-66
2021/06/15 06:30:04;;;;;;;2.12;1.32;;;;;;;22.26;61.98;100496.96;1733218;81;21146;-66
2021/06/15 06:32:30;;;;;;;2.10;1.50;;;;;;;22.29;62.09;100496.28;1737014;81;21048;-66
2021/06/15 06:34:57;;;;;;;2.37;1.50;;;;;;;22.31;62.21;100508.67;1732267;81;21650;-66
2021/06/15 06:37:23;;;;;;;2.70;1.50;;;;;;;22.35;62.30;100503.83;1736605;81;21102;-66
2021/06/15 06:39:49;;;;;;;3.45;1.20;;;;;;;22.38;62.38;100501.20;1751376;80;21506;-66
2021/06/15 06:42:18;;;;;;;2.58;1.67;;;;;;;22.42;62.43;100502.14;1726252;81;21076;-66
2021/06/15 06:44:43;;;;;;;5.50;1.80;;;;;;;22.46;62.39;100500.31;1718200;81;21052;-66
2021/06/15 06:47:09;;;;;;;5.03;1.80;;;;;;;22.49;62.35;100500.23;1720904;81;21116;-65
2021/06/15 06:49:35;;;;;;;2.98;1.20;;;;;;;22.51;62.27;100505.67;1733620;81;20901;-66
2021/06/15 06:52:01;;;;;;;2.30;1.20;;;;;;;22.54;62.22;100502.78;1738027;81;20979;-66
2021/06/15 06:54:27;;;;;;;1.90;1.12;;;;;;;22.54;62.18;100506.38;1737552;81;21036;-66
2021/06/15 06:56:55;;;;;;;3.05;1.77;;;;;;;22.55;62.15;100513.55;1736958;81;21074;-66
2021/06/15 06:59:21;;;;;;;2.05;1.37;;;;;;;22.55;62.08;100508.57;1738020;81;23223;-66
2021/06/15 07:01:47;;;;;;;2.85;2.12;;;;;;;22.54;62.05;100516.08;1737171;81;21000;-66
2021/06/15 07:04:14;;;;;;;3.35;1.37;;;;;;;22.55;62.03;100508.57;1712270;81;20924;-66
2021/06/15 07:06:40;;;;;;;4.17;1.60;;;;;;;22.55;62.03;100518.27;1757828;80;21017;-66
2021/06/15 07:09:06;;;;;;;2.85;1.30;;;;;;;22.54;62.01;100512.48;1757729;80;20945;-66
2021/06/15 07:11:32;;;;;;;2.17;1.35;;;;;;;22.55;62.03;100509.95;1725887;81;22021;-66
2021/06/15 07:13:58;;;;;;;3.12;1.40;;;;;;;22.55;62.01;100511.34;1728148;81;20913;-66
2021/06/15 07:16:24;;;;;;;2.40;1.20;;;;;;;22.57;61.97;100509.88;1728279;81;21738;-66
2021/06/15 07:18:51;;;;;;;1.85;1.00;;;;;;;22.61;62.01;100512.20;1715810;81;21016;-67
2021/06/15 07:21:18;;;;;;;3.33;1.22;;;;;;;22.64;62.09;100503.20;1752056;80;21508;-66
2021/06/15 07:23:44;;;;;;;2.17;1.10;;;;;;;22.68;62.14;100493.63;1757827;80;21435;-66
2021/06/15 07:26:10;;;;;;;3.42;1.07;;;;;;;22.69;62.19;100490.56;1752141;80;21124;-66
2021/06/15 07:28:36;;;;;;;2.30;1.20;;;;;;;22.73;62.21;100495.66;1727627;81;21039;-66
2021/06/15 07:31:03;;;;;;;2.33;1.30;;;;;;;22.74;62.16;100504.19;1719152;81;21475;-66
2021/06/15 07:33:29;;;;;;;1.72;1.20;;;;;;;22.75;62.07;100498.08;1750981;80;21067;-66
2021/06/15 07:35:55;;;;;;;2.70;1.37;;;;;;;22.77;62.02;100508.27;1715050;81;22538;-66
2021/06/15 07:38:21;;;;;;;2.45;1.30;;;;;;;22.78;61.96;100492.44;1713124;81;21068;-66
2021/06/15 07:40:48;;;;;;;1.75;1.05;;;;;;;22.78;61.89;100501.58;1711162;81;21459;-66
2021/06/15 07:43:16;;;;;;;2.00;1.20;;;;;;;22.80;61.84;100495.67;1715613;81;21106;-66
2021/06/15 07:45:42;;;;;;;3.02;1.32;;;;;;;22.79;61.77;100493.47;1712442;82;21032;-66
2021/06/15 07:48:08;;;;;;;3.47;1.10;;;;;;;22.75;61.72;100496.11;1710482;81;21105;-66
2021/06/15 07:50:35;;;;;;;2.58;1.40;;;;;;;22.75;61.67;100493.91;1735699;81;21086;-66
2021/06/15 07:53:01;;;;;;;2.92;1.40;;;;;;;22.74;61.67;100490.93;1737472;81;21511;-66
2021/06/15 07:55:27;;;;;;;2.58;1.30;;;;;;;22.70;61.64;100494.93;1735500;81;21064;-66
2021/06/15 07:57:53;;;;;;;1.70;1.10;;;;;;;22.68;61.65;100495.02;1737809;81;21084;-66
2021/06/15 08:00:20;;;;;;;2.47;1.10;;;;;;;22.65;61.61;100499.86;1736593;81;22150;-66
2021/06/15 08:02:47;;;;;;;2.30;1.27;;;;;;;22.63;61.62;100493.83;1732423;81;21542;-69
2021/06/15 08:05:14;;;;;;;3.30;1.40;;;;;;;22.60;61.63;100488.97;1737586;81;21004;-67
2021/06/15 08:07:41;;;;;;;2.08;1.05;;;;;;;22.61;61.62;100493.37;1736400;81;21001;-67
2021/06/15 08:10:09;;;;;;;3.40;1.30;;;;;;;22.63;61.69;100489.67;1738793;81;21051;-67
2021/06/15 08:12:35;;;;;;;1.65;1.02;;;;;;;22.63;61.79;100480.78;1735394;81;21163;-67
2021/06/15 08:15:01;;;;;;;2.58;1.40;;;;;;;22.64;61.88;100476.86;1735854;81;21442;-67
2021/06/15 08:17:27;;;;;;;1.52;1.05;;;;;;;22.65;61.93;100474.33;1736506;81;21143;-67
2021/06/15 08:19:54;;;;;;;2.17;1.20;;;;;;;22.66;61.93;100470.38;1739414;81;21087;-66
2021/06/15 08:22:20;;;;;;;2.15;1.10;;;;;;;22.68;61.87;100465.33;1737479;81;21052;-66
2021/06/15 08:24:46;;;;;;;3.75;1.20;;;;;;;22.69;61.83;100462.83;1734382;81;21235;-67
2021/06/15 08:27:12;;;;;;;2.00;1.20;;;;;;;22.71;61.76;100457.73;1735446;81;21636;-67
2021/06/15 08:29:38;;;;;;;3.05;1.20;;;;;;;22.72;61.72;100458.55;1740711;81;21178;-67
2021/06/15 08:32:06;;;;;;;2.30;1.27;;;;;;;22.70;61.68;100458.88;1733405;81;21540;-67
2021/06/15 08:34:34;;;;;;;3.17;1.32;;;;;;;22.68;61.63;100452.84;1733639;81;21028;-67
2021/06/15 08:37:00;;;;;;;2.37;1.20;;;;;;;22.66;61.60;100448.20;1737533;81;21376;-66
2021/06/15 08:39:26;;;;;;;1.55;1.12;;;;;;;22.63;61.60;100448.89;1708769;81;21597;-66
2021/06/15 08:41:52;;;;;;;1.82;1.15;;;;;;;22.63;61.57;100438.38;1735200;81;21102;-67
2021/06/15 08:44:18;;;;;;;1.50;1.00;;;;;;;22.61;61.56;100438.73;1725140;81;21001;-67
2021/06/15 08:46:44;;;;;;;3.47;1.30;;;;;;;22.59;61.55;100434.08;1713023;81;21075;-67
2021/06/15 08:49:10;;;;;;;2.50;1.20;;;;;;;22.56;61.58;100437.55;1704014;83;21632;-67
2021/06/15 08:51:37;;;;;;;4.10;1.40;;;;;;;22.57;61.58;100442.52;1725563;81;20994;-68
2021/06/15 08:54:06;;;;;;;2.10;1.12;;;;;;;22.59;61.60;100437.42;1749439;80;21091;-68
2021/06/15 08:56:33;;;;;;;2.27;1.07;;;;;;;22.60;61.64;100436.28;1707633;82;21479;-68
2021/06/15 08:59:22;;;;;;;2.90;1.10;;;;;;;22.62;61.74;100436.17;1734583;81;21016;-68
2021/06/15 09:01:53;;;;;;;2.87;1.02;;;;;;;22.63;61.81;100434.20;1722679;81;21136;-68
2021/06/15 09:04:20;;;;;;;2.90;1.27;;;;;;;22.63;61.83;100433.64;1716360;81;21614;-68
2021/06/15 09:06:47;;;;;;;2.98;1.07;;;;;;;22.65;61.83;100434.13;1717395;82;21077;-68
2021/06/15 09:09:14;;;;;;;2.15;1.00;;;;;;;22.64;61.80;100436.66;1713224;82;21028;-68
2021/06/15 09:11:58;;;;;;;1.92;1.17;;;;;;;22.65;61.77;100438.85;1718146;81;21522;-68
2021/06/15 09:14:46;;;;;;;2.45;1.37;;;;;;;22.64;61.71;100439.42;1725640;81;21000;-68
2021/06/15 09:17:18;;;;;;;1.27;1.00;;;;;;;22.62;61.69;100438.94;1708287;83;21099;-67
2021/06/15 09:19:44;;;;;;;1.37;0.98;;;;;;;22.59;61.66;100435.47;1715360;81;21080;-68
2021/06/15 09:22:32;;;;;;;2.12;1.02;;;;;;;22.56;61.63;100441.70;1694167;83;21496;-68
2021/06/15 09:24:59;;;;;;;1.70;1.10;;;;;;;22.54;61.65;100439.83;1726736;81;21040;-67
2021/06/15 09:27:30;;;;;;;1.87;1.00;;;;;;;22.52;61.65;100440.77;1721385;81;22444;-67
2021/06/15 09:29:57;;;;;;;;;;;;;;;22.50;61.67;100440.27;1705435;83;21146;-67
2021/06/15 09:32:35;;;;;;;1.57;1.00;;;;;;;22.48;61.68;100437.05;1717833;81;20499;-67
2021/06/15 09:35:01;;;;;;;2.37;1.15;;;;;;;22.46;61.71;100433.78;1692830;83;21039;-67
2021/06/15 09:37:34;;;;;;;1.42;0.80;;;;;;;22.45;61.71;100432.16;1724856;81;21126;-68
2021/06/15 09:40:05;;;;;;;2.08;0.95;;;;;;;22.47;61.73;100428.48;1706071;83;21060;-67
2021/06/15 09:42:31;;;;;;;2.98;0.90;;;;;;;22.48;61.81;100432.89;1716607;81;21111;-67
2021/06/15 09:44:57;;;;;;;1.95;0.90;;;;;;;22.49;61.90;100422.01;1712163;82;21024;-67
2021/06/15 09:47:23;;;;;;;2.72;1.00;;;;;;;22.54;62.00;100421.81;1707360;82;20940;-67
2021/06/15 09:49:50;;;;;;;2.47;1.00;;;;;;;22.57;62.09;100429.47;1716157;81;21009;-67
2021/06/15 09:52:25;;;;;;;1.57;0.90;;;;;;;22.59;62.10;100428.53;1698533;83;21163;-67
2021/06/15 09:55:01;;;;;;;1.80;1.00;;;;;;;22.61;62.10;100424.05;1717594;81;21070;-67
2021/06/15 09:57:30;;;;;;;2.15;1.02;;;;;;;22.63;62.03;100429.48;1708942;82;21077;-67
2021/06/15 10:00:16;;;;;;;1.77;1.20;;;;;;;22.66;61.99;100429.39;1717531;81;21062;-66
2021/06/15 10:02:58;;;;;;;2.95;1.17;;;;;;;22.66;61.93;100428.00;1715223;81;21128;-68
2021/06/15 10:05:33;;;;;;;1.87;0.88;;;;;;;22.67;61.88;100422.09;1717286;81;21426;-68
2021/06/15 10:08:08;;;;;;;1.12;0.72;;;;;;;22.67;61.84;100416.55;1736640;81;21052;-68
2021/06/15 10:10:41;;;;;;;2.40;0.90;;;;;;;22.67;61.78;100420.71;1740268;81;21586;-68
2021/06/15 10:13:07;;;;;;;1.87;1.10;;;;;;;22.67;61.75;100415.73;1749120;80;21108;-68
2021/06/15 10:15:35;;;;;;;1.87;1.10;;;;;;;22.65;61.75;100410.55;1756064;80;21478;-68
2021/06/15 10:18:01;;;;;;;1.52;0.90;;;;;;;22.65;61.74;100408.35;1753057;80;21289;-69
2021/06/15 10:20:32;;;;;;;4.15;1.37;;;;;;;22.64;61.75;100410.31;1755080;80;21516;-68
2021/06/15 10:22:59;;;;;;;1.55;1.20;;;;;;;22.63;61.72;100403.70;1729167;81;21100;-68
2021/06/15 10:25:28;;;;;;;3.60;1.02;;;;;;;22.61;61.72;100405.45;1694823;81;21513;-68
2021/06/15 10:27:57;;;;;;;4.15;1.25;;;;;;;22.62;61.73;100404.85;1747708;80;21025;-68
2021/06/15 10:30:33;;;;;;;3.77;1.20;;;;;;;22.63;61.77;100410.64;1737795;81;21103;-68
2021/06/15 10:33:02;;;;;;;1.37;0.80;;;;;;;22.64;61.89;100413.66;1733586;81;20984;-67
2021/06/15 10:35:36;;;;;;;2.20;1.10;;;;;;;22.63;61.98;100416.19;1738059;81;21040;-68
2021/06/15 10:38:04;;;;;;;1.12;0.90;;;;;;;22.62;62.04;100409.02;1736243;81;21109;-68
2021/06/15 10:40:32;;;;;;;1.50;1.02;;;;;;;22.61;62.05;100404.07;1733206;81;21143;-68
2021/06/15 10:43:16;;;;;;;5.30;2.10;;;;;;;22.61;62.04;100404.64;1732585;81;22057;-68
2021/06/15 10:45:43;;;;;;;1.57;0.90;;;;;;;22.60;62.00;100398.85;1736734;81;21458;-68
2021/06/15 10:48:18;;;;;;;1.77;0.93;;;;;;;22.58;61.98;100401.95;1735775;81;21502;-68
2021/06/15 10:50:57;;;;;;;2.65;1.20;;;;;;;22.57;61.96;100396.77;1737003;81;21535;-68
2021/06/15 10:53:39;;;;;;;3.98;1.00;;;;;;;22.55;61.92;100392.94;1735517;81;21379;-67
2021/06/15 10:56:10;;;;;;;1.92;1.00;;;;;;;22.55;61.92;100386.01;1737866;81;21856;-68
2021/06/15 10:58:44;;;;;;;1.92;0.90;;;;;;;22.56;61.89;100399.30;1737135;81;20976;-66
2021/06/15 11:01:19;;;;;;;1.47;0.93;;;;;;;22.53;61.90;100388.90;1737751;81;21119;-66
2021/06/15 11:04:05;;;;;;;1.57;0.80;;;;;;;22.52;61.89;100390.86;1738307;81;21071;-67
2021/06/15 11:06:36;;;;;;;2.50;1.02;;;;;;;22.51;61.91;100385.64;1739434;81;21084;-67
2021/06/15 11:09:14;;;;;;;1.47;0.85;;;;;;;22.53;61.90;100381.37;1737165;81;22409;-67
2021/06/15 11:11:40;;;;;;;1.00;0.75;;;;;;;22.55;61.95;100374.92;1738043;81;21692;-67
2021/06/15 11:14:19;;;;;;;0.90;0.60;;;;;;;22.55;62.08;100366.61;1738437;81;21115;-67
2021/06/15 11:16:49;;;;;;;1.00;0.70;;;;;;;22.56;62.15;100369.62;1738544;81;21390;-67
2021/06/15 11:19:24;;;;;;;1.70;0.80;;;;;;;22.57;62.20;100366.27;1749441;80;21586;-67
2021/06/15 11:22:01;;;;;;;1.87;1.00;;;;;;;22.57;62.20;100361.54;1722695;81;21198;-67
2021/06/15 11:24:48;;;;;;;2.42;1.12;;;;;;;22.58;62.17;100354.00;1746049;80;21031;-66
2021/06/15 11:27:27;;;;;;;2.15;1.00;;;;;;;22.58;62.14;100354.82;1751835;80;21067;-67
2021/06/15 11:29:56;;;;;;;1.45;0.90;;;;;;;22.56;62.10;100348.83;1735685;81;21087;-66
2021/06/15 11:32:34;;;;;;;2.55;1.00;;;;;;;22.55;62.08;100345.00;1736895;81;21122;-67
2021/06/15 11:35:06;;;;;;;2.22;1.00;;;;;;;22.54;62.05;100338.64;1734727;81;21036;-67
2021/06/15 11:37:46;;;;;;;2.15;1.02;;;;;;;22.53;62.01;100341.16;1714378;81;21427;-66
2021/06/15 11:40:35;;;;;;;2.10;1.10;;;;;;;22.51;62.01;100333.78;1753364;80;21114;-67
2021/06/15 11:43:13;;;;;;;2.00;1.00;;;;;;;22.50;62.02;100328.00;1727055;81;21061;-67